Terminal Aerodrome Forecast
Issued by NWS Tulsa, OK

Home | Current Version | Previous Version | Text Only | Print | Product List | Glossary On
Versions: 1 2 3 4 5 6 7 8 9 10 11 12
118
FTUS44 KTSA 241120
TAFTUL
TAF
KTUL 241120Z 2412/2512 16007KT P6SM BKN250
     FM241600 19014G21KT P6SM SCT250
     FM242300 19007KT P6SM BKN200
     FM250700 01006KT P6SM OVC180=

USA.gov is the U.S. government's official web portal to all federal, state and local government web resources and services.